Time;durP1;ratioP1;P1;durP2;ratioP2;P2;SDS_P1;SDS_P2;PMS_P1;PMS_P2;Temp;Humidity;BMP_temperature;BMP_pressure;BME280_temperature;BME280_humidity;BME280_pressure;Samples;Min_cycle;Max_cycle;Signal;HPM_P1;HPM_P2
2021/03/25 00:02:08;;;;;;;1.90;1.50;;;22.00;38.00;;;;;;5086849;28;20032;-49
2021/03/25 00:04:33;;;;;;;1.83;1.52;;;22.10;38.00;;;;;;5070984;28;20024;-52
2021/03/25 00:07:00;;;;;;;2.55;1.58;;;22.00;38.00;;;;;;5093180;28;20217;-50
2021/03/25 00:09:34;;;;;;;1.83;1.10;;;22.00;38.00;;;;;;5077245;28;20049;-50
2021/03/25 00:12:00;;;;;;;1.67;1.33;;;22.00;38.00;;;;;;5060056;28;20027;-51
2021/03/25 00:14:27;;;;;;;2.45;1.25;;;22.00;38.10;;;;;;5087553;28;20589;-49
2021/03/25 00:16:53;;;;;;;1.70;1.30;;;21.90;38.00;;;;;;5087054;28;21506;-51
2021/03/25 00:19:19;;;;;;;3.10;1.48;;;21.90;38.10;;;;;;5068161;28;20040;-50
2021/03/25 00:21:45;;;;;;;2.97;1.60;;;21.90;38.10;;;;;;5086327;28;20066;-51
2021/03/25 00:24:15;;;;;;;2.92;1.33;;;21.90;38.10;;;;;;5085243;28;20216;-51
2021/03/25 00:26:42;;;;;;;1.77;1.17;;;21.90;38.10;;;;;;5064856;28;20020;-49
2021/03/25 00:29:12;;;;;;;2.85;1.23;;;21.90;38.20;;;;;;5085370;28;20023;-49
2021/03/25 00:31:43;;;;;;;2.15;1.27;;;21.90;38.10;;;;;;5084634;28;20020;-49
2021/03/25 00:34:11;;;;;;;2.05;1.58;;;21.80;38.10;;;;;;5084844;28;20036;-50
2021/03/25 00:36:36;;;;;;;1.95;1.05;;;21.80;38.10;;;;;;5085058;28;20085;-51
2021/03/25 00:39:11;;;;;;;2.10;1.42;;;21.80;38.10;;;;;;5085129;28;20036;-50
2021/03/25 00:41:36;;;;;;;1.25;1.15;;;21.80;38.10;;;;;;5085450;28;20055;-52
2021/03/25 00:44:07;;;;;;;4.57;1.40;;;21.80;38.10;;;;;;5084062;28;20445;-51
2021/03/25 00:46:33;;;;;;;1.85;1.30;;;21.80;38.10;;;;;;5085377;28;20024;-52
2021/03/25 00:49:01;;;;;;;1.60;1.05;;;21.80;38.10;;;;;;5067832;28;20493;-51
2021/03/25 00:51:27;;;;;;;1.67;1.58;;;21.70;38.10;;;;;;5087994;28;20027;-50
2021/03/25 00:53:52;;;;;;;2.30;1.55;;;21.80;38.10;;;;;;5072546;28;20028;-51
2021/03/25 00:56:18;;;;;;;2.80;1.50;;;21.70;38.10;;;;;;5072068;28;20389;-50
2021/03/25 00:58:43;;;;;;;2.13;1.20;;;21.70;38.20;;;;;;5088721;28;20101;-51
2021/03/25 01:01:09;;;;;;;2.38;1.65;;;21.70;38.10;;;;;;5070637;28;20026;-51
2021/03/25 01:03:35;;;;;;;2.10;1.15;;;21.70;38.10;;;;;;5087041;28;20034;-50
2021/03/25 01:06:01;;;;;;;1.95;1.23;;;21.70;38.20;;;;;;5089881;28;20497;-50
2021/03/25 01:08:27;;;;;;;3.67;1.40;;;21.70;38.10;;;;;;5070004;28;20136;-51
2021/03/25 01:10:58;;;;;;;1.98;1.42;;;21.70;38.10;;;;;;5070475;28;20103;-53
2021/03/25 01:13:35;;;;;;;2.22;1.35;;;21.70;38.10;;;;;;5087262;28;20115;-49
2021/03/25 01:16:02;;;;;;;1.55;1.38;;;21.70;38.10;;;;;;5089909;28;20055;-49
2021/03/25 01:18:29;;;;;;;2.08;1.30;;;21.70;38.10;;;;;;5087163;28;20942;-51
2021/03/25 01:20:55;;;;;;;1.80;1.70;;;21.60;38.10;;;;;;5069943;28;20043;-55
2021/03/25 01:23:21;;;;;;;2.38;1.40;;;21.70;38.20;;;;;;5089691;28;20437;-47
2021/03/25 01:25:47;;;;;;;2.20;1.70;;;21.60;38.10;;;;;;5086940;28;20097;-54
2021/03/25 01:28:14;;;;;;;3.00;1.65;;;21.60;38.10;;;;;;5055119;28;20413;-48
2021/03/25 01:30:41;;;;;;;3.08;1.48;;;21.60;38.20;;;;;;5086424;28;20028;-49
2021/03/25 01:33:08;;;;;;;1.67;1.58;;;21.60;38.20;;;;;;5104413;28;20063;-47
2021/03/25 01:35:36;;;;;;;2.63;1.33;;;21.60;38.20;;;;;;5088519;28;20489;-49
2021/03/25 01:38:03;;;;;;;2.63;1.13;;;21.60;38.10;;;;;;5069903;28;20036;-48
2021/03/25 01:40:39;;;;;;;2.80;1.80;;;21.60;38.20;;;;;;5066912;28;20077;-50
2021/03/25 01:43:13;;;;;;;2.38;1.38;;;21.50;38.10;;;;;;5070554;28;20040;-53
2021/03/25 01:45:47;;;;;;;2.10;1.50;;;21.60;38.20;;;;;;5068168;28;20043;-51
2021/03/25 01:48:14;;;;;;;1.83;1.38;;;21.60;38.20;;;;;;5087031;28;20020;-50
2021/03/25 01:50:40;;;;;;;2.17;1.58;;;21.50;38.10;;;;;;5070388;28;20050;-48
2021/03/25 01:53:30;;;;;;;1.42;1.13;;;21.50;38.20;;;;;;5088071;28;20035;-49
2021/03/25 01:56:20;;;;;;;2.33;1.20;;;21.50;38.20;;;;;;5087963;28;20125;-53
2021/03/25 01:59:00;;;;;;;1.27;1.17;;;21.50;38.20;;;;;;5086056;28;20034;-49
2021/03/25 02:01:39;;;;;;;3.28;1.33;;;21.50;38.20;;;;;;5088500;28;20035;-51
2021/03/25 02:04:23;;;;;;;2.33;1.20;;;21.50;38.20;;;;;;5087205;28;20058;-51
2021/03/25 02:06:56;;;;;;;1.42;1.02;;;21.50;38.20;;;;;;5086087;28;20016;-51
2021/03/25 02:09:31;;;;;;;1.50;1.20;;;21.50;38.20;;;;;;5067006;28;20123;-51
2021/03/25 02:12:12;;;;;;;1.90;1.35;;;21.50;38.20;;;;;;5090224;28;20020;-51
2021/03/25 02:14:37;;;;;;;3.35;1.42;;;21.50;38.20;;;;;;5087627;28;20099;-50
2021/03/25 02:17:19;;;;;;;1.40;1.30;;;21.40;38.10;;;;;;5087042;28;20095;-52
2021/03/25 02:20:02;;;;;;;1.45;1.33;;;21.40;38.10;;;;;;5185163;22;20049;-78
2021/03/25 02:22:57;;;;;;;2.40;1.38;;;21.40;38.20;;;;;;5040642;28;20025;-77
2021/03/25 02:25:34;;;;;;;1.95;1.30;;;21.40;38.20;;;;;;5025695;28;20037;-77
2021/03/25 02:28:36;;;;;;;1.30;1.05;;;21.40;38.20;;;;;;5011591;28;20020;-78
2021/03/25 02:31:18;;;;;;;2.22;1.70;;;21.40;38.20;;;;;;5010582;28;20025;-79
2021/03/25 02:33:51;;;;;;;1.55;1.40;;;21.40;38.20;;;;;;5030070;28;20029;-76
2021/03/25 02:36:27;;;;;;;1.95;1.40;;;21.40;38.20;;;;;;5026130;28;20021;-79
2021/03/25 02:38:58;;;;;;;1.50;1.02;;;21.40;38.20;;;;;;5024827;28;20025;-79
2021/03/25 02:41:29;;;;;;;1.95;1.25;;;21.40;38.20;;;;;;5010357;28;20074;-78
2021/03/25 02:44:01;;;;;;;2.63;1.77;;;21.40;38.20;;;;;;5031448;28;20041;-77
2021/03/25 02:46:47;;;;;;;;;;;21.40;38.20;;;;;;5013647;28;20024;-78
2021/03/25 02:49:16;;;;;;;2.10;1.33;;;21.40;38.20;;;;;;5011139;28;20427;-78
2021/03/25 02:51:48;;;;;;;2.88;1.33;;;21.40;38.20;;;;;;5013054;28;20028;-77
2021/03/25 02:54:13;;;;;;;1.38;0.98;;;21.40;38.20;;;;;;5012024;28;20021;-78
2021/03/25 02:56:50;;;;;;;2.17;1.85;;;21.30;38.20;;;;;;5016707;28;20127;-77
2021/03/25 02:59:22;;;;;;;1.98;1.77;;;21.30;38.20;;;;;;5032651;28;20060;-77
2021/03/25 03:01:52;;;;;;;1.70;1.23;;;21.30;38.20;;;;;;5036757;28;20499;-79
2021/03/25 03:04:24;;;;;;;2.08;1.83;;;21.30;38.20;;;;;;5013215;28;20479;-78
2021/03/25 03:07:14;;;;;;;1.95;1.48;;;21.30;38.20;;;;;;5032984;28;20479;-79
2021/03/25 03:09:45;;;;;;;3.55;1.65;;;21.30;38.20;;;;;;5030399;28;20025;-78
2021/03/25 03:12:28;;;;;;;1.53;1.43;;;21.30;38.20;;;;;;5015511;28;20047;-78
2021/03/25 03:15:06;;;;;;;4.22;1.45;;;21.30;38.30;;;;;;5031852;28;20120;-77
2021/03/25 03:17:54;;;;;;;2.65;1.30;;;21.30;38.30;;;;;;5012963;28;20025;-77
2021/03/25 03:20:25;;;;;;;1.63;1.33;;;21.30;38.30;;;;;;5016164;28;20028;-76
2021/03/25 03:22:53;;;;;;;1.73;1.02;;;21.30;38.30;;;;;;5016655;28;20029;-79
2021/03/25 03:25:22;;;;;;;3.03;1.65;;;21.30;38.20;;;;;;5031471;28;20095;-77
2021/03/25 03:27:49;;;;;;;2.63;1.33;;;21.20;38.20;;;;;;5028385;28;20060;-78
2021/03/25 03:30:28;;;;;;;3.15;1.70;;;21.20;38.20;;;;;;5030512;28;20082;-77
2021/03/25 03:33:05;;;;;;;1.40;1.30;;;21.20;38.20;;;;;;5014246;28;20029;-78
2021/03/25 03:35:42;;;;;;;2.15;1.60;;;21.20;38.20;;;;;;5011056;28;20056;-78
2021/03/25 03:38:14;;;;;;;2.33;1.92;;;21.20;38.10;;;;;;5027908;28;20104;-75
2021/03/25 03:40:44;;;;;;;2.20;1.55;;;21.20;38.10;;;;;;5039386;28;20025;-76
2021/03/25 03:43:14;;;;;;;2.25;1.67;;;21.20;38.10;;;;;;5008366;28;20123;-78
2021/03/25 03:46:12;;;;;;;3.05;1.92;;;21.20;38.20;;;;;;5023221;28;20057;-78
2021/03/25 03:48:41;;;;;;;3.38;1.88;;;21.20;38.20;;;;;;5041435;28;20020;-73
2021/03/25 03:51:12;;;;;;;2.42;1.58;;;21.20;38.20;;;;;;5007716;28;20029;-76
2021/03/25 03:53:39;;;;;;;2.63;1.70;;;21.20;38.20;;;;;;5042992;28;20081;-79
2021/03/25 03:56:34;;;;;;;1.67;1.15;;;21.20;38.20;;;;;;5038569;28;20365;-78
2021/03/25 03:59:07;;;;;;;2.53;1.30;;;21.20;38.20;;;;;;5023109;28;20029;-79
2021/03/25 04:01:44;;;;;;;1.42;1.33;;;21.20;38.20;;;;;;5022400;28;20083;-75
2021/03/25 04:04:39;;;;;;;1.77;1.33;;;21.20;38.20;;;;;;5039881;28;20068;-76
2021/03/25 04:07:09;;;;;;;1.50;1.38;;;21.10;38.10;;;;;;5022498;28;20524;-78
2021/03/25 04:09:41;;;;;;;2.45;1.40;;;21.20;38.20;;;;;;5026047;28;20431;-77
2021/03/25 04:12:17;;;;;;;2.30;1.65;;;21.10;38.10;;;;;;5021300;28;20021;-79
2021/03/25 04:14:57;;;;;;;2.33;1.48;;;21.10;38.10;;;;;;5005644;28;20596;-76
2021/03/25 04:17:29;;;;;;;2.45;1.63;;;21.10;38.20;;;;;;5027162;28;20025;-79
2021/03/25 04:20:00;;;;;;;1.88;1.50;;;21.10;38.20;;;;;;5008985;28;20558;-78
2021/03/25 04:22:29;;;;;;;1.92;1.63;;;21.10;38.10;;;;;;5013304;28;20547;-78
2021/03/25 04:24:55;;;;;;;1.70;1.38;;;21.10;38.20;;;;;;5010156;28;20070;-77
2021/03/25 04:27:26;;;;;;;1.48;1.30;;;21.10;38.10;;;;;;5019549;28;20047;-78
2021/03/25 04:30:12;;;;;;;1.92;1.42;;;21.10;38.20;;;;;;5030384;28;20029;-77
2021/03/25 04:32:37;;;;;;;1.75;1.65;;;21.10;38.10;;;;;;5050614;28;20029;-77
2021/03/25 04:35:05;;;;;;;1.70;1.50;;;21.10;38.20;;;;;;5020180;28;20032;-76
2021/03/25 04:37:32;;;;;;;1.83;1.30;;;21.10;38.20;;;;;;5032764;28;20029;-76
2021/03/25 04:39:59;;;;;;;1.80;1.10;;;21.10;38.20;;;;;;5028252;28;20391;-79
2021/03/25 04:42:25;;;;;;;3.20;1.60;;;21.10;38.10;;;;;;5030564;28;20036;-79
2021/03/25 04:45:02;;;;;;;2.38;1.60;;;21.10;38.20;;;;;;5037540;28;20029;-78
2021/03/25 04:47:33;;;;;;;2.47;1.40;;;21.00;38.10;;;;;;5055623;28;20025;-78
2021/03/25 04:50:11;;;;;;;2.28;1.45;;;21.00;38.10;;;;;;5026866;28;20013;-77
2021/03/25 04:52:37;;;;;;;2.20;1.65;;;21.00;38.10;;;;;;5049985;28;20052;-77
2021/03/25 04:55:14;;;;;;;1.90;1.23;;;21.00;38.10;;;;;;5023920;28;20065;-75
2021/03/25 04:57:44;;;;;;;2.13;1.92;;;21.00;38.10;;;;;;5010786;28;20078;-76
2021/03/25 05:00:15;;;;;;;1.85;1.75;;;21.00;38.10;;;;;;5042887;28;20049;-76
2021/03/25 05:02:41;;;;;;;2.67;1.50;;;21.00;38.10;;;;;;5047184;28;20039;-77
2021/03/25 05:05:09;;;;;;;3.38;1.50;;;21.00;38.10;;;;;;5024928;28;20021;-76
2021/03/25 05:07:39;;;;;;;2.42;1.88;;;21.00;38.10;;;;;;5032033;28;20100;-77
2021/03/25 05:10:16;;;;;;;2.75;1.75;;;21.00;38.10;;;;;;5043723;28;20081;-79
2021/03/25 05:12:42;;;;;;;2.20;1.35;;;21.00;38.20;;;;;;5029365;28;20431;-80
2021/03/25 05:15:13;;;;;;;2.10;1.30;;;21.00;38.10;;;;;;5013736;28;20029;-78
2021/03/25 05:18:03;;;;;;;1.45;1.35;;;21.00;38.10;;;;;;5041815;28;20029;-78
2021/03/25 05:21:07;;;;;;;1.75;1.27;;;21.00;38.10;;;;;;5013085;28;20062;-79
2021/03/25 05:23:49;;;;;;;1.95;1.52;;;21.00;38.10;;;;;;5014101;28;20415;-76
2021/03/25 05:26:23;;;;;;;1.70;1.23;;;21.00;38.60;;;;;;5029285;28;20033;-79
2021/03/25 05:28:53;;;;;;;2.92;1.40;;;21.00;38.10;;;;;;5009880;28;20029;-78
2021/03/25 05:31:20;;;;;;;2.13;1.45;;;21.00;38.10;;;;;;5040755;28;20044;-78
2021/03/25 05:33:51;;;;;;;1.60;1.50;;;21.00;38.10;;;;;;5049309;28;20117;-79
2021/03/25 05:36:17;;;;;;;1.83;1.17;;;20.90;38.10;;;;;;5043054;28;20032;-79
2021/03/25 05:38:43;;;;;;;2.08;1.42;;;20.90;38.10;;;;;;5013138;28;20037;-77
2021/03/25 05:41:11;;;;;;;1.38;1.20;;;20.90;38.10;;;;;;5010752;28;20029;-77
2021/03/25 05:43:46;;;;;;;2.38;1.45;;;20.90;38.10;;;;;;5030386;28;20024;-79
2021/03/25 05:46:20;;;;;;;2.13;1.27;;;20.90;38.20;;;;;;5009084;28;20048;-75
2021/03/25 05:49:23;;;;;;;1.77;1.25;;;20.90;38.10;;;;;;5028561;28;20021;-77
2021/03/25 05:52:16;;;;;;;1.70;1.60;;;20.90;38.10;;;;;;5011787;28;20026;-79
2021/03/25 05:55:22;;;;;;;1.75;1.33;;;20.90;38.10;;;;;;5025613;28;20634;-75
2021/03/25 05:58:26;;;;;;;1.73;1.38;;;20.90;38.10;;;;;;5021231;28;20051;-76
2021/03/25 06:00:58;;;;;;;2.15;1.52;;;20.90;38.20;;;;;;5026912;28;20092;-77
2021/03/25 06:03:26;;;;;;;1.75;1.52;;;20.90;38.20;;;;;;5026562;28;20036;-78
2021/03/25 06:05:57;;;;;;;2.78;1.90;;;20.90;38.20;;;;;;5027266;28;20021;-78
2021/03/25 06:08:42;;;;;;;2.95;1.77;;;20.90;38.20;;;;;;5048546;28;20021;-76
2021/03/25 06:11:14;;;;;;;2.72;1.50;;;20.90;38.20;;;;;;5029621;28;20017;-78
2021/03/25 06:13:45;;;;;;;;;;;20.90;38.20;;;;;;5048884;28;20024;-77
2021/03/25 06:16:35;;;;;;;1.52;1.42;;;20.90;38.10;;;;;;5028478;28;19976;-79
2021/03/25 06:19:42;;;;;;;2.25;1.73;;;20.90;38.20;;;;;;5021683;28;20017;-78
2021/03/25 06:22:19;;;;;;;2.25;1.60;;;20.90;38.20;;;;;;4987758;28;20086;-77
2021/03/25 06:25:14;;;;;;;1.90;1.50;;;20.90;38.20;;;;;;5025923;28;20029;-78
2021/03/25 06:27:47;;;;;;;2.10;1.75;;;20.90;38.20;;;;;;5025673;28;20025;-74
2021/03/25 06:30:20;;;;;;;2.30;1.67;;;20.90;38.20;;;;;;5040809;28;20024;-77
2021/03/25 06:32:57;;;;;;;2.92;1.77;;;20.90;38.20;;;;;;5008715;28;20057;-77
2021/03/25 06:35:22;;;;;;;3.30;1.63;;;20.90;38.20;;;;;;5003441;28;20027;-77
2021/03/25 06:38:01;;;;;;;2.97;1.60;;;20.90;38.20;;;;;;5023963;28;20038;-78
2021/03/25 06:40:40;;;;;;;1.65;1.10;;;20.80;38.20;;;;;;5020802;28;20029;-76
2021/03/25 06:43:28;;;;;;;2.10;1.95;;;20.80;38.20;;;;;;5007310;28;20018;-77
2021/03/25 06:46:30;;;;;;;2.78;1.88;;;20.80;38.20;;;;;;5040808;28;20036;-78
2021/03/25 06:49:01;;;;;;;2.17;1.98;;;20.80;38.10;;;;;;4987170;28;20101;-79
2021/03/25 06:51:30;;;;;;;2.97;1.55;;;20.80;38.10;;;;;;5046363;28;20025;-81
2021/03/25 06:54:10;;;;;;;2.42;2.10;;;20.80;38.20;;;;;;5039203;28;20033;-81
2021/03/25 06:56:43;;;;;;;2.28;1.52;;;20.90;38.30;;;;;;5029352;28;20579;-80
2021/03/25 06:59:20;;;;;;;2.05;1.38;;;20.90;38.30;;;;;;5010185;28;20094;-80
2021/03/25 07:01:49;;;;;;;1.75;1.65;;;21.00;38.30;;;;;;5041805;28;20039;-80
2021/03/25 07:04:29;;;;;;;1.52;1.42;;;21.20;37.90;;;;;;5014099;28;20017;-80
2021/03/25 07:07:00;;;;;;;1.90;1.63;;;21.30;37.70;;;;;;5026322;28;20029;-81
2021/03/25 07:09:27;;;;;;;;;;;21.50;37.50;;;;;;5019925;28;20063;-81
2021/03/25 07:11:53;;;;;;;2.03;1.67;;;21.60;37.40;;;;;;5031054;28;20506;-80
2021/03/25 07:14:26;;;;;;;3.17;2.08;;;21.70;37.40;;;;;;5024974;28;20032;-80
2021/03/25 07:16:52;;;;;;;4.70;2.20;;;21.70;37.20;;;;;;5022822;28;20102;-80
2021/03/25 07:19:22;;;;;;;2.60;1.95;;;21.80;37.20;;;;;;5027628;28;20032;-78
2021/03/25 07:21:50;;;;;;;2.72;2.05;;;21.90;37.10;;;;;;5010307;28;20076;-78
2021/03/25 07:24:34;;;;;;;2.75;2.33;;;21.90;37.10;;;;;;5004325;28;20083;-78
2021/03/25 07:27:28;;;;;;;3.60;2.72;;;22.00;37.10;;;;;;5019439;28;20058;-80
2021/03/25 07:30:04;;;;;;;3.88;2.85;;;22.00;37.10;;;;;;5008113;28;20033;-81
2021/03/25 07:32:50;;;;;;;4.25;2.53;;;22.00;37.00;;;;;;5025370;28;20029;-81
2021/03/25 07:35:47;;;;;;;5.30;2.65;;;22.00;37.00;;;;;;5043033;28;20063;-79
2021/03/25 07:38:42;;;;;;;3.85;2.67;;;22.00;37.10;;;;;;5022163;28;20049;-80
2021/03/25 07:41:21;;;;;;;3.63;2.63;;;22.00;37.00;;;;;;5007160;28;20132;-78
2021/03/25 07:44:05;;;;;;;4.90;2.70;;;22.10;37.10;;;;;;5008159;28;20074;-80
2021/03/25 07:46:43;;;;;;;3.30;2.70;;;22.00;37.70;;;;;;5024719;28;20029;-79
2021/03/25 07:49:12;;;;;;;3.42;2.65;;;22.00;37.20;;;;;;5045445;28;20036;-79
2021/03/25 07:51:56;;;;;;;3.05;2.75;;;22.00;37.30;;;;;;5015410;28;20385;-79
2021/03/25 07:54:36;;;;;;;5.03;2.97;;;22.00;37.30;;;;;;5029317;28;20100;-80
2021/03/25 07:57:05;;;;;;;2.92;2.67;;;22.00;37.30;;;;;;5045768;28;20041;-80
2021/03/25 07:59:38;;;;;;;3.97;1.92;;;22.00;37.30;;;;;;5026793;28;20036;-81
2021/03/25 08:02:35;;;;;;;5.88;3.42;;;21.90;37.30;;;;;;5025332;28;20033;-81
2021/03/25 08:05:19;;;;;;;4.18;2.67;;;22.00;37.40;;;;;;5043848;28;20503;-80
2021/03/25 08:07:46;;;;;;;4.65;2.53;;;22.00;37.40;;;;;;5023840;28;20045;-81
2021/03/25 08:10:40;;;;;;;2.97;2.63;;;21.90;37.40;;;;;;5020606;28;20017;-77
2021/03/25 08:13:27;;;;;;;3.70;2.67;;;21.90;37.50;;;;;;5039672;28;20060;-80
2021/03/25 08:15:58;;;;;;;2.33;2.13;;;21.90;37.50;;;;;;5027169;28;20028;-80
2021/03/25 08:18:47;;;;;;;4.45;2.40;;;21.80;37.50;;;;;;5019242;28;21131;-80
2021/03/25 08:21:34;;;;;;;3.25;2.80;;;21.80;38.10;;;;;;5026976;28;20029;-80
2021/03/25 08:24:04;;;;;;;5.18;2.47;;;21.80;37.50;;;;;;4988555;28;20054;-80
2021/03/25 08:26:52;;;;;;;3.07;2.50;;;21.80;37.60;;;;;;5022920;28;20033;-81
2021/03/25 08:29:38;;;;;;;4.40;2.67;;;21.80;37.60;;;;;;5024273;28;20021;-81
2021/03/25 08:32:13;;;;;;;5.13;2.83;;;21.80;37.60;;;;;;5006918;28;20088;-80
2021/03/25 08:35:06;;;;;;;4.45;2.88;;;21.80;37.70;;;;;;5027235;28;20025;-80
2021/03/25 08:37:44;;;;;;;4.30;2.38;;;21.70;37.70;;;;;;5008051;28;20112;-80
2021/03/25 08:40:19;;;;;;;3.95;2.80;;;21.70;37.70;;;;;;5016599;28;20052;-80
2021/03/25 08:42:53;;;;;;;3.58;3.10;;;21.70;37.70;;;;;;5010860;28;20034;-80
2021/03/25 08:45:26;;;;;;;5.45;3.20;;;21.70;37.80;;;;;;4995430;28;20036;-81
2021/03/25 08:48:16;;;;;;;3.08;2.28;;;21.70;37.80;;;;;;5017397;28;20025;-79
2021/03/25 08:50:56;;;;;;;4.07;2.50;;;21.60;37.80;;;;;;5023818;28;20092;-78
2021/03/25 08:53:40;;;;;;;3.40;2.83;;;21.60;37.80;;;;;;5017534;28;20092;-76
2021/03/25 08:56:21;;;;;;;5.22;3.58;;;21.60;37.90;;;;;;5047458;28;20044;-76
2021/03/25 08:58:48;;;;;;;4.03;2.72;;;21.60;38.40;;;;;;4998454;28;20033;-78
2021/03/25 09:01:17;;;;;;;4.43;3.00;;;21.60;38.20;;;;;;5010606;28;20026;-82
2021/03/25 09:03:50;;;;;;;3.92;3.50;;;21.60;38.10;;;;;;5026571;28;20036;-78
2021/03/25 09:06:30;;;;;;;8.90;3.35;;;21.60;38.10;;;;;;5034683;28;20048;-78
2021/03/25 09:09:22;;;;;;;3.78;2.88;;;21.60;38.20;;;;;;5049447;28;20082;-77
2021/03/25 09:11:48;;;;;;;;;;;21.60;38.20;;;;;;5027017;28;20036;-77
2021/03/25 09:14:20;;;;;;;6.32;3.03;;;21.60;38.10;;;;;;5033274;28;19909;-80
2021/03/25 09:16:47;;;;;;;6.18;3.47;;;21.60;38.20;;;;;;5033258;28;20022;-80
2021/03/25 09:19:38;;;;;;;3.75;3.40;;;21.60;38.10;;;;;;5032452;28;20048;-80
2021/03/25 09:22:04;;;;;;;6.90;3.92;;;21.60;38.20;;;;;;5025719;28;20037;-78
2021/03/25 09:24:30;;;;;;;5.82;3.72;;;21.60;38.10;;;;;;5017266;28;20041;-78
2021/03/25 09:27:02;;;;;;;3.35;3.00;;;21.60;38.10;;;;;;5024168;28;20549;-76
2021/03/25 09:29:31;;;;;;;4.20;3.42;;;21.60;38.10;;;;;;5027233;28;20041;-79
2021/03/25 09:31:57;;;;;;;4.82;4.35;;;21.60;38.10;;;;;;5026411;28;20021;-81
2021/03/25 09:34:23;;;;;;;5.95;3.47;;;21.60;38.10;;;;;;5047367;28;20114;-81
2021/03/25 09:36:56;;;;;;;4.95;3.55;;;21.60;38.10;;;;;;5029913;28;20025;-79
2021/03/25 09:39:26;;;;;;;4.88;3.55;;;21.60;38.10;;;;;;5020161;28;20088;-80
2021/03/25 09:41:54;;;;;;;6.50;4.53;;;21.60;38.10;;;;;;5020704;28;20423;-81
2021/03/25 09:44:26;;;;;;;6.85;3.97;;;21.60;38.10;;;;;;5032320;28;20283;-79
2021/03/25 09:46:55;;;;;;;3.63;3.15;;;21.60;38.10;;;;;;5032234;28;20675;-80
2021/03/25 09:49:36;;;;;;;4.65;4.03;;;21.60;38.10;;;;;;5039048;28;20021;-78
2021/03/25 09:52:08;;;;;;;5.45;4.28;;;21.60;38.10;;;;;;5032687;28;20790;-75
2021/03/25 09:54:34;;;;;;;5.22;3.90;;;21.60;38.10;;;;;;5015486;28;20125;-78
2021/03/25 09:57:34;;;;;;;5.78;3.90;;;21.60;38.10;;;;;;5026937;28;20072;-80
2021/03/25 10:00:41;;;;;;;4.78;3.42;;;21.60;38.10;;;;;;5032262;28;20024;-78
2021/03/25 10:03:14;;;;;;;4.18;3.10;;;21.60;38.00;;;;;;5022622;28;20040;-78
2021/03/25 10:05:41;;;;;;;4.80;3.15;;;21.60;38.00;;;;;;5035628;28;20025;-78
2021/03/25 10:08:11;;;;;;;3.20;3.00;;;21.60;38.00;;;;;;5035000;28;20029;-79
2021/03/25 10:10:43;;;;;;;3.58;3.10;;;21.70;38.00;;;;;;5030495;28;20015;-79
2021/03/25 10:13:12;;;;;;;4.18;3.78;;;21.70;38.00;;;;;;5033819;28;20017;-79
2021/03/25 10:15:52;;;;;;;6.35;3.67;;;21.70;38.00;;;;;;5035704;28;20017;-80
2021/03/25 10:18:24;;;;;;;3.97;3.58;;;21.70;38.60;;;;;;5041250;28;20029;-80
2021/03/25 10:20:57;;;;;;;4.15;3.33;;;21.70;38.20;;;;;;5014586;28;20036;-82
2021/03/25 10:23:29;;;;;;;4.15;3.20;;;21.80;37.90;;;;;;5026055;28;20064;-81
2021/03/25 10:26:04;;;;;;;6.07;3.97;;;21.80;37.90;;;;;;5046661;28;20104;-80
2021/03/25 10:28:40;;;;;;;3.97;3.58;;;21.90;37.90;;;;;;5020145;28;20040;-79
2021/03/25 10:31:20;;;;;;;5.88;4.18;;;22.00;38.00;;;;;;5015550;28;20095;-80
2021/03/25 10:33:49;;;;;;;8.52;4.50;;;22.10;37.90;;;;;;5005374;28;20065;-80
2021/03/25 10:36:21;;;;;;;7.35;4.35;;;22.10;37.80;;;;;;5001220;28;20037;-80
2021/03/25 10:38:55;;;;;;;4.78;3.83;;;22.20;37.80;;;;;;5001604;28;20040;-82
2021/03/25 10:41:24;;;;;;;7.10;4.35;;;22.30;37.70;;;;;;5013002;28;20083;-82
2021/03/25 10:43:50;;;;;;;6.53;3.85;;;22.40;37.70;;;;;;5017399;28;20061;-82
2021/03/25 10:46:29;;;;;;;7.32;4.70;;;22.40;37.60;;;;;;5019364;28;20022;-80
2021/03/25 10:49:01;;;;;;;5.03;4.00;;;22.50;37.60;;;;;;5003212;28;20017;-80
2021/03/25 10:51:29;;;;;;;6.85;4.35;;;22.50;37.50;;;;;;4997877;28;20691;-78
2021/03/25 10:54:04;;;;;;;5.57;3.95;;;22.60;37.50;;;;;;5007360;28;20508;-78
2021/03/25 10:56:39;;;;;;;4.85;3.75;;;22.60;37.40;;;;;;5023111;28;20033;-81
2021/03/25 10:59:09;;;;;;;5.57;3.78;;;22.70;37.50;;;;;;5004690;28;20516;-78
2021/03/25 11:01:36;;;;;;;4.90;3.80;;;22.70;37.40;;;;;;5019376;28;21171;-82
2021/03/25 11:04:19;;;;;;;7.90;3.75;;;22.80;37.50;;;;;;5026938;28;20021;-78
2021/03/25 11:06:46;;;;;;;6.18;3.72;;;22.80;37.50;;;;;;5000820;28;20021;-81
2021/03/25 11:09:27;;;;;;;5.03;3.60;;;22.80;37.50;;;;;;5033448;28;20070;-80
2021/03/25 11:12:07;;;;;;;6.90;3.80;;;22.80;37.50;;;;;;5027043;28;20108;-82
2021/03/25 11:14:37;;;;;;;6.68;3.90;;;22.80;37.50;;;;;;5031379;28;20036;-78
2021/03/25 11:17:14;;;;;;;4.20;3.65;;;22.80;37.50;;;;;;5019983;28;20033;-80
2021/03/25 11:19:42;;;;;;;6.40;3.83;;;22.80;37.60;;;;;;5037264;28;20028;-80
2021/03/25 11:22:11;;;;;;;5.85;3.88;;;22.80;37.60;;;;;;5021868;28;20120;-80
2021/03/25 11:24:38;;;;;;;6.07;4.18;;;22.80;37.60;;;;;;5026379;28;20044;-78
2021/03/25 11:27:10;;;;;;;7.32;3.90;;;22.80;37.60;;;;;;5027848;28;20061;-81
2021/03/25 11:29:38;;;;;;;5.15;4.10;;;22.80;37.60;;;;;;5012892;28;20217;-81
2021/03/25 11:32:16;;;;;;;5.30;4.13;;;22.80;37.60;;;;;;5018841;28;20035;-83
2021/03/25 11:34:43;;;;;;;4.45;4.05;;;22.80;37.60;;;;;;5006057;28;20021;-79
2021/03/25 11:37:36;;;;;;;4.07;3.50;;;22.80;37.60;;;;;;5035511;28;20041;-82
2021/03/25 11:40:16;;;;;;;7.45;3.30;;;22.80;37.70;;;;;;4999555;28;20032;-80
2021/03/25 11:42:47;;;;;;;6.03;3.33;;;22.90;37.70;;;;;;5029886;28;20057;-81
2021/03/25 11:45:40;;;;;;;3.67;3.08;;;22.80;37.70;;;;;;5017886;28;20086;-83
2021/03/25 11:48:29;;;;;;;4.50;3.75;;;22.90;37.70;;;;;;5022940;28;20083;-81
2021/03/25 11:51:16;;;;;;;4.15;2.70;;;22.80;37.70;;;;;;5002239;28;20052;-81
2021/03/25 11:53:44;;;;;;;4.43;3.33;;;22.90;37.70;;;;;;5004753;28;20458;-80
2021/03/25 11:56:37;;;;;;;5.47;3.15;;;22.80;37.70;;;;;;5010143;28;20021;-80
2021/03/25 11:59:18;;;;;;;5.60;3.25;;;22.90;37.70;;;;;;5042626;28;20048;-78
2021/03/25 12:01:45;;;;;;;4.15;3.78;;;22.80;37.70;;;;;;5016021;28;20026;-79
2021/03/25 12:04:13;;;;;;;5.38;3.47;;;22.80;37.70;;;;;;5001504;28;20029;-79
2021/03/25 12:06:57;;;;;;;4.20;3.60;;;22.80;37.70;;;;;;5020055;28;20096;-79
2021/03/25 12:09:22;;;;;;;4.38;2.95;;;22.80;37.70;;;;;;5023810;28;20025;-81
2021/03/25 12:11:50;;;;;;;4.25;3.03;;;22.80;37.60;;;;;;5002583;28;20128;-79
2021/03/25 12:14:20;;;;;;;3.53;3.13;;;22.90;37.60;;;;;;5010196;28;20445;-81
2021/03/25 12:16:51;;;;;;;3.60;2.97;;;22.80;37.60;;;;;;5008696;28;20060;-81
2021/03/25 12:19:17;;;;;;;3.65;2.88;;;22.80;37.60;;;;;;5030272;28;20101;-81
2021/03/25 12:21:43;;;;;;;2.75;2.45;;;22.80;37.60;;;;;;5010680;28;20113;-78
2021/03/25 12:24:10;;;;;;;4.50;2.90;;;22.80;37.60;;;;;;5016027;28;20367;-79
2021/03/25 12:26:35;;;;;;;3.72;3.30;;;22.80;37.60;;;;;;4996393;28;20450;-80
2021/03/25 12:29:04;;;;;;;3.72;2.78;;;22.80;37.60;;;;;;5019981;28;20037;-80
2021/03/25 12:31:36;;;;;;;4.53;2.88;;;22.80;37.60;;;;;;5010684;28;20051;-79
2021/03/25 12:34:02;;;;;;;3.95;3.10;;;22.80;37.60;;;;;;5017945;28;20118;-78
2021/03/25 12:36:28;;;;;;;3.58;2.72;;;22.80;37.60;;;;;;5015878;28;20039;-81
2021/03/25 12:38:54;;;;;;;3.40;2.38;;;22.80;37.60;;;;;;5020501;28;20116;-77
2021/03/25 12:41:36;;;;;;;3.10;2.80;;;22.80;37.60;;;;;;5012595;28;20113;-78
2021/03/25 12:44:04;;;;;;;4.13;2.97;;;22.80;37.60;;;;;;5012972;28;20029;-78
2021/03/25 12:46:30;;;;;;;3.40;2.30;;;22.80;37.60;;;;;;5010490;28;20093;-78
2021/03/25 12:48:56;;;;;;;2.92;2.20;;;22.80;37.60;;;;;;5015591;28;20104;-81
2021/03/25 12:51:22;;;;;;;2.42;2.13;;;22.90;37.70;;;;;;5013330;28;20080;-81
2021/03/25 12:53:48;;;;;;;2.65;2.45;;;22.90;37.70;;;;;;5012355;28;20129;-79
2021/03/25 12:56:25;;;;;;;3.20;2.47;;;22.90;37.70;;;;;;5013659;28;20050;-81
2021/03/25 12:58:50;;;;;;;2.33;2.00;;;22.90;37.70;;;;;;5035618;28;20067;-79
2021/03/25 13:01:20;;;;;;;2.28;2.08;;;22.90;37.70;;;;;;5026340;28;20454;-81
2021/03/25 13:03:47;;;;;;;2.60;2.22;;;22.90;37.70;;;;;;5049398;28;20032;-81
2021/03/25 13:06:13;;;;;;;3.13;2.40;;;22.90;37.80;;;;;;5008624;28;20029;-81
2021/03/25 13:08:39;;;;;;;2.47;2.15;;;22.80;37.80;;;;;;5025209;28;20025;-78
2021/03/25 13:11:06;;;;;;;1.88;1.67;;;22.80;37.80;;;;;;5010861;28;20199;-79
2021/03/25 13:13:32;;;;;;;4.10;2.17;;;22.90;37.80;;;;;;5009331;28;20032;-79
2021/03/25 13:15:59;;;;;;;3.13;2.03;;;22.90;37.80;;;;;;5009127;28;20029;-78
2021/03/25 13:18:25;;;;;;;2.58;2.30;;;22.80;37.80;;;;;;5037627;28;20040;-79
2021/03/25 13:20:52;;;;;;;3.70;2.20;;;22.80;37.90;;;;;;5006956;28;20033;-81
2021/03/25 13:23:18;;;;;;;3.72;2.20;;;22.80;37.90;;;;;;5016953;28;20068;-80
2021/03/25 13:25:44;;;;;;;2.45;1.55;;;22.80;37.90;;;;;;5006091;28;20021;-80